Time;durP1;ratioP1;P1;durP2;ratioP2;P2;SDS_P1;SDS_P2;PMS_P1;PMS_P2;Temp;Humidity;BMP_temperature;BMP_pressure;BME280_temperature;BME280_humidity;BME280_pressure;Samples;Min_cycle;Max_cycle;Signal;HPM_P1;HPM_P2
2022/07/20 00:01:16;;;;;;;6.25;3.20;;;;;;;;;;10185737;28;20044;-65
2022/07/20 00:06:09;;;;;;;4.15;2.47;;;;;;;;;;10181096;28;20126;-65
2022/07/20 00:11:22;;;;;;;4.88;2.55;;;;;;;;;;10173563;28;20051;-65
2022/07/20 00:16:15;;;;;;;6.05;2.70;;;;;;;;;;10184663;28;20543;-64
2022/07/20 00:21:10;;;;;;;4.15;2.42;;;;;;;;;;10179212;28;20052;-66
2022/07/20 00:26:04;;;;;;;6.35;2.53;;;;;;;;;;10172586;28;20049;-66
2022/07/20 00:30:58;;;;;;;3.22;2.92;;;;;;;;;;10181899;28;20128;-64
2022/07/20 00:35:51;;;;;;;4.07;2.95;;;;;;;;;;10188422;28;20571;-66
2022/07/20 00:40:45;;;;;;;5.68;3.08;;;;;;;;;;10184240;28;20071;-65
2022/07/20 00:45:38;;;;;;;3.60;2.88;;;;;;;;;;10187837;28;20060;-65
2022/07/20 00:50:32;;;;;;;11.40;2.92;;;;;;;;;;10179415;28;20135;-65
2022/07/20 00:55:26;;;;;;;2.53;2.28;;;;;;;;;;10181832;28;20056;-65
2022/07/20 01:00:21;;;;;;;4.75;3.28;;;;;;;;;;10166977;28;20056;-65
2022/07/20 01:05:14;;;;;;;4.68;2.92;;;;;;;;;;10178851;28;20109;-65
2022/07/20 01:10:09;;;;;;;3.17;2.75;;;;;;;;;;10181497;28;20051;-65
2022/07/20 01:15:05;;;;;;;5.45;2.65;;;;;;;;;;10191159;28;20052;-65
2022/07/20 01:19:58;;;;;;;7.20;3.10;;;;;;;;;;10178271;28;20448;-65
2022/07/20 01:24:51;;;;;;;4.78;2.97;;;;;;;;;;10163703;28;20493;-65
2022/07/20 01:29:45;;;;;;;2.95;2.70;;;;;;;;;;10173247;28;20101;-65
2022/07/20 01:34:39;;;;;;;4.90;3.38;;;;;;;;;;10174295;28;20048;-64
2022/07/20 01:39:33;;;;;;;3.65;2.78;;;;;;;;;;10171483;28;20055;-64
2022/07/20 01:44:27;;;;;;;3.15;2.83;;;;;;;;;;10153439;28;20052;-64
2022/07/20 01:49:20;;;;;;;4.72;2.75;;;;;;;;;;10179613;28;20052;-65
2022/07/20 01:54:13;;;;;;;6.43;3.08;;;;;;;;;;10173841;28;20044;-65
2022/07/20 01:59:07;;;;;;;5.18;3.08;;;;;;;;;;10188831;28;20447;-64
2022/07/20 02:04:02;;;;;;;3.63;3.20;;;;;;;;;;10188061;28;20052;-67
2022/07/20 02:08:55;;;;;;;6.25;3.13;;;;;;;;;;10186311;28;20139;-65
2022/07/20 02:13:50;;;;;;;5.47;3.28;;;;;;;;;;10177956;28;20040;-64
2022/07/20 02:18:52;;;;;;;5.95;3.33;;;;;;;;;;10184404;28;20052;-65
2022/07/20 02:23:47;;;;;;;3.67;3.17;;;;;;;;;;10181142;28;20044;-66
2022/07/20 02:28:41;;;;;;;3.85;3.45;;;;;;;;;;10174523;28;20056;-66
2022/07/20 02:33:36;;;;;;;6.63;3.05;;;;;;;;;;10180698;28;20040;-65
2022/07/20 02:38:30;;;;;;;10.48;3.47;;;;;;;;;;10180046;28;20058;-65
2022/07/20 02:43:23;;;;;;;4.25;3.30;;;;;;;;;;10172879;28;20064;-65
2022/07/20 02:48:17;;;;;;;2.85;2.60;;;;;;;;;;10170020;28;20048;-64
2022/07/20 02:53:12;;;;;;;5.90;3.65;;;;;;;;;;10180276;28;20044;-65
2022/07/20 02:58:05;;;;;;;4.70;3.30;;;;;;;;;;10170087;28;20114;-65
2022/07/20 03:02:58;;;;;;;4.25;3.17;;;;;;;;;;10175341;28;20048;-65
2022/07/20 03:07:52;;;;;;;4.25;3.15;;;;;;;;;;10172081;28;20119;-64
2022/07/20 03:12:46;;;;;;;5.70;3.33;;;;;;;;;;10181581;28;20075;-64
2022/07/20 03:17:45;;;;;;;6.18;3.47;;;;;;;;;;10179089;28;20393;-65
2022/07/20 03:22:40;;;;;;;5.75;4.05;;;;;;;;;;10175234;28;20084;-65
2022/07/20 03:27:35;;;;;;;6.30;3.40;;;;;;;;;;10169753;28;20062;-64
2022/07/20 03:32:29;;;;;;;4.90;3.35;;;;;;;;;;10175545;28;20072;-66
2022/07/20 03:37:23;;;;;;;5.38;4.00;;;;;;;;;;10182437;28;20382;-64
2022/07/20 03:42:18;;;;;;;4.30;3.92;;;;;;;;;;10172908;28;20056;-64
2022/07/20 03:47:11;;;;;;;6.18;3.88;;;;;;;;;;10162271;28;20064;-65
2022/07/20 03:52:05;;;;;;;5.60;5.07;;;;;;;;;;10174350;28;20048;-64
2022/07/20 03:57:00;;;;;;;7.85;4.20;;;;;;;;;;10177220;28;20071;-64
2022/07/20 04:01:54;;;;;;;10.57;4.38;;;;;;;;;;10183782;28;20127;-64
2022/07/20 04:06:48;;;;;;;8.40;3.63;;;;;;;;;;10190966;28;20055;-65
2022/07/20 04:11:42;;;;;;;7.75;4.60;;;;;;;;;;10192126;28;20504;-65
2022/07/20 04:16:36;;;;;;;6.45;3.90;;;;;;;;;;10190639;28;20131;-65
2022/07/20 04:21:30;;;;;;;7.75;4.80;;;;;;;;;;10191387;28;20127;-64
2022/07/20 04:26:25;;;;;;;7.28;4.68;;;;;;;;;;10191584;28;20377;-65
2022/07/20 04:31:18;;;;;;;6.20;4.13;;;;;;;;;;10190025;28;20071;-64
2022/07/20 04:36:13;;;;;;;4.95;4.32;;;;;;;;;;10162772;28;20056;-65
2022/07/20 04:41:08;;;;;;;4.53;4.13;;;;;;;;;;10168188;28;20476;-64
2022/07/20 04:46:02;;;;;;;4.65;4.18;;;;;;;;;;10185841;28;20059;-67
2022/07/20 04:50:56;;;;;;;7.97;4.13;;;;;;;;;;10171727;28;20562;-66
2022/07/20 04:55:50;;;;;;;5.10;4.10;;;;;;;;;;10188392;28;20056;-66
2022/07/20 05:00:44;;;;;;;9.52;5.60;;;;;;;;;;10161655;28;20072;-66
2022/07/20 05:05:40;;;;;;;13.98;6.00;;;;;;;;;;10167471;28;20440;-67
2022/07/20 05:10:40;;;;;;;6.40;5.80;;;;;;;;;;10169796;28;20050;-66
2022/07/20 05:15:34;;;;;;;9.80;5.90;;;;;;;;;;10183523;28;20048;-66
2022/07/20 05:20:28;;;;;;;7.60;4.97;;;;;;;;;;10176425;28;20488;-68
2022/07/20 05:25:22;;;;;;;7.35;5.22;;;;;;;;;;10178146;28;20086;-67
2022/07/20 05:30:21;;;;;;;8.02;5.10;;;;;;;;;;10175058;28;20561;-68
2022/07/20 05:35:15;;;;;;;8.18;4.63;;;;;;;;;;10168597;28;20484;-67
2022/07/20 05:40:13;;;;;;;8.55;5.53;;;;;;;;;;10162269;28;20063;-68
2022/07/20 05:45:07;;;;;;;10.65;5.15;;;;;;;;;;10160058;28;20064;-67
2022/07/20 05:50:02;;;;;;;7.80;6.45;;;;;;;;;;10171555;28;20049;-68
2022/07/20 05:54:59;;;;;;;10.52;6.13;;;;;;;;;;10172539;28;20059;-66
2022/07/20 05:59:54;;;;;;;13.93;6.53;;;;;;;;;;10167058;28;20059;-66
2022/07/20 06:04:48;;;;;;;7.93;6.55;;;;;;;;;;10175496;28;20131;-69
2022/07/20 06:09:43;;;;;;;6.38;5.53;;;;;;;;;;10170681;28;20143;-67
2022/07/20 06:14:37;;;;;;;8.27;7.47;;;;;;;;;;10180824;28;20072;-68
2022/07/20 06:19:30;;;;;;;12.02;6.57;;;;;;;;;;10171883;28;20055;-67
2022/07/20 06:24:25;;;;;;;14.88;7.68;;;;;;;;;;10163358;28;20044;-65
2022/07/20 06:29:18;;;;;;;17.55;7.28;;;;;;;;;;10174207;28;20048;-66
2022/07/20 06:34:13;;;;;;;13.10;7.45;;;;;;;;;;10173255;28;20041;-65
2022/07/20 06:39:06;;;;;;;10.10;8.13;;;;;;;;;;10161734;28;20516;-66
2022/07/20 06:44:00;;;;;;;11.93;8.30;;;;;;;;;;10181348;28;20060;-67
2022/07/20 06:48:54;;;;;;;10.13;8.02;;;;;;;;;;10182355;28;20052;-72
2022/07/20 06:53:48;;;;;;;9.65;6.50;;;;;;;;;;10164613;28;20067;-64
2022/07/20 06:58:43;;;;;;;10.15;8.00;;;;;;;;;;10180087;28;20474;-64
2022/07/20 07:03:37;;;;;;;11.98;7.57;;;;;;;;;;10179848;28;20073;-64
2022/07/20 07:08:30;;;;;;;12.43;8.43;;;;;;;;;;10180575;28;20109;-63
2022/07/20 07:13:24;;;;;;;11.63;6.70;;;;;;;;;;10182091;28;20082;-62
2022/07/20 07:18:17;;;;;;;9.63;6.70;;;;;;;;;;10181040;28;20048;-63
2022/07/20 07:23:11;;;;;;;14.80;7.10;;;;;;;;;;10183312;28;20512;-64
2022/07/20 07:28:06;;;;;;;10.10;6.20;;;;;;;;;;10172958;28;20059;-63
2022/07/20 07:32:59;;;;;;;16.63;6.90;;;;;;;;;;10170773;28;20052;-62
2022/07/20 07:37:52;;;;;;;9.52;6.32;;;;;;;;;;10159745;28;20049;-63
2022/07/20 07:42:46;;;;;;;23.42;8.05;;;;;;;;;;10166737;28;20060;-62
2022/07/20 07:47:41;;;;;;;14.80;6.15;;;;;;;;;;10166755;28;20074;-62
2022/07/20 07:52:35;;;;;;;13.52;6.00;;;;;;;;;;10180578;28;20105;-62
2022/07/20 07:57:47;;;;;;;7.65;4.30;;;;;;;;;;10181196;28;20043;-62
2022/07/20 08:02:41;;;;;;;9.15;5.30;;;;;;;;;;10190885;28;20105;-61
2022/07/20 08:07:36;;;;;;;10.82;4.85;;;;;;;;;;10191069;28;20051;-62
2022/07/20 08:12:30;;;;;;;9.85;4.18;;;;;;;;;;10191791;28;20076;-62
2022/07/20 08:17:24;;;;;;;7.72;3.35;;;;;;;;;;10187388;28;20395;-62
2022/07/20 08:22:19;;;;;;;15.40;3.45;;;;;;;;;;10184022;28;20047;-62
2022/07/20 08:27:13;;;;;;;7.05;2.97;;;;;;;;;;10189683;28;20040;-62
2022/07/20 08:32:07;;;;;;;6.85;3.13;;;;;;;;;;10190995;28;20052;-62
2022/07/20 08:37:02;;;;;;;4.45;2.20;;;;;;;;;;10187143;28;20044;-61
2022/07/20 08:41:56;;;;;;;8.07;3.35;;;;;;;;;;10187549;28;20553;-61
2022/07/20 08:46:50;;;;;;;7.22;3.25;;;;;;;;;;10118926;28;20069;-62
2022/07/20 08:51:43;;;;;;;3.78;2.30;;;;;;;;;;10110326;28;20083;-62
2022/07/20 08:56:37;;;;;;;2.22;1.98;;;;;;;;;;10108559;28;20057;-61
2022/07/20 09:01:31;;;;;;;7.03;2.58;;;;;;;;;;10109037;28;20064;-60
2022/07/20 09:06:29;;;;;;;6.78;2.83;;;;;;;;;;10105332;28;20053;-60
2022/07/20 09:11:25;;;;;;;4.20;2.10;;;;;;;;;;10106038;28;20124;-60
2022/07/20 09:16:32;;;;;;;9.10;3.35;;;;;;;;;;10108255;28;20048;-60
2022/07/20 09:21:30;;;;;;;3.55;2.60;;;;;;;;;;10105454;28;20051;-61
2022/07/20 09:26:24;;;;;;;2.78;1.83;;;;;;;;;;10106724;28;20048;-60
2022/07/20 09:31:30;;;;;;;5.95;3.00;;;;;;;;;;10105786;28;20489;-62
2022/07/20 09:36:26;;;;;;;4.25;2.97;;;;;;;;;;10107490;28;20565;-60
2022/07/20 09:41:23;;;;;;;6.07;3.75;;;;;;;;;;10107635;28;20500;-61
2022/07/20 09:46:24;;;;;;;14.70;7.70;;;;;;;;;;10169563;28;20052;-61
2022/07/20 09:51:36;;;;;;;9.00;4.60;;;;;;;;;;10182953;28;20044;-62
2022/07/20 09:56:31;;;;;;;9.52;4.10;;;;;;;;;;10181160;28;20044;-62
2022/07/20 10:01:30;;;;;;;5.82;2.58;;;;;;;;;;10178528;28;20518;-62
2022/07/20 10:06:25;;;;;;;3.22;1.60;;;;;;;;;;10182190;28;20097;-62
2022/07/20 10:11:27;;;;;;;9.00;1.55;;;;;;;;;;10184069;28;20512;-62
2022/07/20 10:16:36;;;;;;;2.40;1.58;;;;;;;;;;10186225;28;20189;-59
2022/07/20 10:21:52;;;;;;;5.47;1.67;;;;;;;;;;10185928;28;20051;-61
2022/07/20 10:26:47;;;;;;;3.15;1.70;;;;;;;;;;10185179;28;20058;-60
2022/07/20 10:32:10;;;;;;;2.70;1.50;;;;;;;;;;10183538;28;20052;-61
2022/07/20 10:37:24;;;;;;;3.80;1.95;;;;;;;;;;10175168;28;20044;-61
2022/07/20 10:42:34;;;;;;;3.77;1.53;;;;;;;;;;10171061;28;20064;-62
2022/07/20 10:48:11;;;;;;;3.97;1.90;;;;;;;;;;10159209;28;20060;-62
2022/07/20 10:53:10;;;;;;;5.43;1.80;;;;;;;;;;10180021;28;20445;-62
2022/07/20 10:58:11;;;;;;;5.05;1.70;;;;;;;;;;10183603;28;20052;-62
2022/07/20 11:03:12;;;;;;;3.90;1.85;;;;;;;;;;10182969;28;20131;-61
2022/07/20 11:08:09;;;;;;;4.35;1.80;;;;;;;;;;10183926;28;20085;-61
2022/07/20 11:13:08;;;;;;;4.70;1.80;;;;;;;;;;10184261;28;20044;-62
2022/07/20 11:18:03;;;;;;;10.60;1.83;;;;;;;;;;10185022;28;20086;-62
2022/07/20 11:22:57;;;;;;;2.55;1.95;;;;;;;;;;10184828;28;20127;-62
2022/07/20 11:28:02;;;;;;;5.43;2.00;;;;;;;;;;10183844;28;20060;-61
2022/07/20 11:32:58;;;;;;;2.40;1.73;;;;;;;;;;10183635;28;20500;-62
2022/07/20 11:37:52;;;;;;;3.80;1.67;;;;;;;;;;10181144;28;20134;-62
2022/07/20 11:43:06;;;;;;;7.70;2.20;;;;;;;;;;10180751;28;20067;-62
2022/07/20 11:47:59;;;;;;;4.47;1.83;;;;;;;;;;10180432;28;20050;-62
2022/07/20 11:53:23;;;;;;;11.63;2.85;;;;;;;;;;10169481;28;20036;-62
2022/07/20 11:58:31;;;;;;;5.45;1.88;;;;;;;;;;10184102;28;20530;-64
2022/07/20 12:03:30;;;;;;;2.80;2.03;;;;;;;;;;10184527;28;20056;-63
2022/07/20 12:08:26;;;;;;;2.95;1.50;;;;;;;;;;10165796;28;20048;-62
2022/07/20 12:13:19;;;;;;;6.57;1.77;;;;;;;;;;10165540;28;20040;-61
2022/07/20 12:18:14;;;;;;;8.50;2.17;;;;;;;;;;10169554;28;20458;-61
2022/07/20 12:23:09;;;;;;;11.60;2.08;;;;;;;;;;10179183;28;20044;-62
2022/07/20 12:28:04;;;;;;;3.07;2.00;;;;;;;;;;10175594;28;20142;-64
2022/07/20 12:33:13;;;;;;;3.13;1.80;;;;;;;;;;10177289;28;20048;-64
2022/07/20 12:38:28;;;;;;;3.15;2.00;;;;;;;;;;10166382;28;20060;-64
2022/07/20 12:43:50;;;;;;;6.28;1.98;;;;;;;;;;10160045;28;20048;-63
2022/07/20 12:48:45;;;;;;;10.02;1.85;;;;;;;;;;10161937;28;20039;-63
2022/07/20 12:53:42;;;;;;;2.63;1.70;;;;;;;;;;10165352;28;20048;-64
2022/07/20 12:58:39;;;;;;;2.55;1.70;;;;;;;;;;10180760;28;20143;-63
2022/07/20 13:03:32;;;;;;;6.32;2.63;;;;;;;;;;10170322;28;20517;-64
2022/07/20 13:08:27;;;;;;;7.82;2.83;;;;;;;;;;10162312;28;20394;-64
2022/07/20 13:13:21;;;;;;;;;;;;;;;;;;10159516;28;20127;-62
2022/07/20 13:18:14;;;;;;;5.63;1.85;;;;;;;;;;10169301;28;19965;-63
2022/07/20 13:23:08;;;;;;;4.40;2.00;;;;;;;;;;10165074;28;20086;-65
2022/07/20 13:28:02;;;;;;;5.20;1.83;;;;;;;;;;10160528;28;20138;-63
2022/07/20 13:33:03;;;;;;;8.27;1.75;;;;;;;;;;10168993;28;20393;-62
2022/07/20 13:37:57;;;;;;;10.70;2.38;;;;;;;;;;10164273;28;20040;-63
2022/07/20 13:42:52;;;;;;;7.65;2.58;;;;;;;;;;10166067;28;20101;-62
2022/07/20 13:47:45;;;;;;;7.10;1.92;;;;;;;;;;10173967;28;20068;-63
2022/07/20 13:52:40;;;;;;;2.88;2.00;;;;;;;;;;10177693;28;20052;-64
2022/07/20 13:57:34;;;;;;;;;;;;;;;;;;10175082;28;20125;-63
2022/07/20 14:02:27;;;;;;;7.93;1.98;;;;;;;;;;10162345;28;20388;-65
2022/07/20 14:07:22;;;;;;;4.53;1.92;;;;;;;;;;10175785;28;20060;-63
2022/07/20 14:12:15;;;;;;;8.05;2.35;;;;;;;;;;10180274;28;20048;-63
2022/07/20 14:17:10;;;;;;;6.15;2.10;;;;;;;;;;10181986;28;20043;-62
2022/07/20 14:22:04;;;;;;;5.63;2.20;;;;;;;;;;10179121;28;20044;-62
2022/07/20 14:26:57;;;;;;;5.85;2.33;;;;;;;;;;10178906;28;20519;-63
2022/07/20 14:31:53;;;;;;;5.75;1.80;;;;;;;;;;10176991;28;20063;-63
2022/07/20 14:36:46;;;;;;;8.85;2.30;;;;;;;;;;10179762;28;20040;-63
2022/07/20 14:41:40;;;;;;;6.28;1.95;;;;;;;;;;10171473;28;20051;-62
2022/07/20 14:46:36;;;;;;;10.20;3.95;;;;;;;;;;10174961;28;20082;-63
2022/07/20 14:51:30;;;;;;;4.10;2.13;;;;;;;;;;10177284;28;20496;-64
2022/07/20 14:56:24;;;;;;;7.65;2.40;;;;;;;;;;10179693;28;20048;-61
2022/07/20 15:01:18;;;;;;;4.78;2.15;;;;;;;;;;10179509;28;20048;-64
2022/07/20 15:06:13;;;;;;;6.20;2.35;;;;;;;;;;10166186;28;20056;-62
2022/07/20 15:11:06;;;;;;;3.88;2.20;;;;;;;;;;10165163;28;20052;-63
2022/07/20 15:16:00;;;;;;;4.03;2.65;;;;;;;;;;10170360;28;20077;-63
2022/07/20 15:20:55;;;;;;;6.05;2.33;;;;;;;;;;10172985;28;20079;-63
2022/07/20 15:25:48;;;;;;;6.05;2.78;;;;;;;;;;10175053;28;20070;-63
2022/07/20 15:30:42;;;;;;;8.00;2.63;;;;;;;;;;10173188;28;20067;-63
2022/07/20 15:35:36;;;;;;;6.60;2.70;;;;;;;;;;10181289;28;20060;-63
2022/07/20 15:40:30;;;;;;;4.30;2.35;;;;;;;;;;10178276;28;20044;-63
2022/07/20 15:45:24;;;;;;;4.90;2.22;;;;;;;;;;10163401;28;20386;-63
2022/07/20 15:50:18;;;;;;;5.10;2.70;;;;;;;;;;10163983;28;20052;-66
2022/07/20 15:55:13;;;;;;;4.97;2.20;;;;;;;;;;10169746;28;20487;-63
2022/07/20 16:00:10;;;;;;;3.88;2.63;;;;;;;;;;10173675;28;20840;-63
2022/07/20 16:05:14;;;;;;;8.88;2.40;;;;;;;;;;10175459;28;20055;-63
2022/07/20 16:10:10;;;;;;;5.57;2.75;;;;;;;;;;10178602;28;20044;-62
2022/07/20 16:15:07;;;;;;;7.60;2.42;;;;;;;;;;10169646;28;20048;-64
2022/07/20 16:20:02;;;;;;;5.90;3.38;;;;;;;;;;10179922;28;20415;-64
2022/07/20 16:24:56;;;;;;;7.55;2.42;;;;;;;;;;10180210;28;20059;-64
2022/07/20 16:29:50;;;;;;;4.28;2.83;;;;;;;;;;10172794;28;20068;-64
2022/07/20 16:34:44;;;;;;;4.80;3.00;;;;;;;;;;10165809;28;20044;-63
2022/07/20 16:39:39;;;;;;;7.93;2.88;;;;;;;;;;10175136;28;20036;-64
2022/07/20 16:44:34;;;;;;;7.53;2.72;;;;;;;;;;10180091;28;20040;-63
2022/07/20 16:49:28;;;;;;;3.88;2.40;;;;;;;;;;10187007;28;20040;-63
2022/07/20 16:54:22;;;;;;;4.35;2.92;;;;;;;;;;10187700;28;20040;-63
2022/07/20 16:59:17;;;;;;;10.13;2.83;;;;;;;;;;10189207;28;20632;-63
2022/07/20 17:04:11;;;;;;;9.52;2.95;;;;;;;;;;10184958;28;20039;-63
2022/07/20 17:09:04;;;;;;;4.88;3.28;;;;;;;;;;10185079;28;20395;-63
2022/07/20 17:13:58;;;;;;;4.72;3.22;;;;;;;;;;10189207;28;20040;-63
2022/07/20 17:18:52;;;;;;;8.10;3.30;;;;;;;;;;10176254;28;20055;-63
2022/07/20 17:23:48;;;;;;;5.30;3.40;;;;;;;;;;10178065;28;20044;-64
2022/07/20 17:28:46;;;;;;;3.90;2.92;;;;;;;;;;10187890;28;20067;-63
2022/07/20 17:33:41;;;;;;;14.13;3.22;;;;;;;;;;10188872;28;20040;-64
2022/07/20 17:38:35;;;;;;;5.10;2.75;;;;;;;;;;10180269;28;20147;-64
2022/07/20 17:43:29;;;;;;;4.97;2.90;;;;;;;;;;10187974;28;20056;-63
2022/07/20 17:48:23;;;;;;;5.55;3.00;;;;;;;;;;10178869;28;20750;-63
2022/07/20 17:53:17;;;;;;;12.60;4.07;;;;;;;;;;10177491;28;20052;-63
2022/07/20 17:58:12;;;;;;;14.13;3.33;;;;;;;;;;10172567;28;20080;-64
2022/07/20 18:03:07;;;;;;;10.80;3.38;;;;;;;;;;10161400;28;20060;-64
2022/07/20 18:08:01;;;;;;;7.78;3.90;;;;;;;;;;10172850;28;20048;-64
2022/07/20 18:12:55;;;;;;;11.85;3.40;;;;;;;;;;10171465;28;20052;-65
2022/07/20 18:18:08;;;;;;;9.20;3.08;;;;;;;;;;10178281;28;20040;-64
2022/07/20 18:23:03;;;;;;;9.77;3.25;;;;;;;;;;10165535;28;20052;-64
2022/07/20 18:28:03;;;;;;;5.78;3.33;;;;;;;;;;10176662;28;20079;-64
2022/07/20 18:32:57;;;;;;;13.57;3.40;;;;;;;;;;10169314;28;20063;-64
2022/07/20 18:37:51;;;;;;;17.55;4.75;;;;;;;;;;10163536;28;20118;-64
2022/07/20 18:42:45;;;;;;;8.68;3.22;;;;;;;;;;10168695;28;20060;-63
2022/07/20 18:47:40;;;;;;;7.78;3.03;;;;;;;;;;10174409;28;20511;-63
2022/07/20 18:52:36;;;;;;;9.93;3.53;;;;;;;;;;10169546;28;20052;-62
2022/07/20 18:57:36;;;;;;;13.07;4.53;;;;;;;;;;10161854;28;20052;-63
2022/07/20 19:02:30;;;;;;;9.32;4.50;;;;;;;;;;10173781;28;20078;-65
2022/07/20 19:07:24;;;;;;;10.82;4.80;;;;;;;;;;10170023;28;20074;-64
2022/07/20 19:12:19;;;;;;;7.57;5.40;;;;;;;;;;10166170;28;20542;-64
2022/07/20 19:17:13;;;;;;;11.07;6.93;;;;;;;;;;10165440;28;20470;-64
2022/07/20 19:22:07;;;;;;;6.43;5.60;;;;;;;;;;10170318;28;20105;-65
2022/07/20 19:27:01;;;;;;;13.93;6.50;;;;;;;;;;10176224;28;20047;-65
2022/07/20 19:31:55;;;;;;;18.25;7.60;;;;;;;;;;10179878;28;20560;-69
2022/07/20 19:36:48;;;;;;;11.32;8.55;;;;;;;;;;10164756;28;20098;-67
2022/07/20 19:41:44;;;;;;;8.70;7.88;;;;;;;;;;10186345;28;20064;-65
2022/07/20 19:46:38;;;;;;;12.15;8.65;;;;;;;;;;10184385;28;20052;-65
2022/07/20 19:51:32;;;;;;;17.17;9.07;;;;;;;;;;10186062;28;20487;-66
2022/07/20 19:56:26;;;;;;;13.85;8.30;;;;;;;;;;10181250;28;20454;-65
2022/07/20 20:01:26;;;;;;;11.45;8.77;;;;;;;;;;10175929;28;20058;-66
2022/07/20 20:06:19;;;;;;;13.32;9.52;;;;;;;;;;10167452;28;20044;-66
2022/07/20 20:11:14;;;;;;;11.40;8.73;;;;;;;;;;10182533;28;20503;-64
2022/07/20 20:16:16;;;;;;;13.02;8.98;;;;;;;;;;10174747;28;20079;-64
2022/07/20 20:21:10;;;;;;;16.48;9.98;;;;;;;;;;10180102;28;20481;-64
2022/07/20 20:26:11;;;;;;;12.27;9.55;;;;;;;;;;10187061;28;20040;-64
2022/07/20 20:31:05;;;;;;;13.80;8.90;;;;;;;;;;10185596;28;20546;-68
2022/07/20 20:36:00;;;;;;;14.38;9.15;;;;;;;;;;10181550;28;20140;-61
2022/07/20 20:40:54;;;;;;;15.50;9.75;;;;;;;;;;10183025;28;20570;-64
2022/07/20 20:45:49;;;;;;;12.02;8.88;;;;;;;;;;10183019;28;20044;-62
2022/07/20 20:50:43;;;;;;;16.27;8.93;;;;;;;;;;10182563;28;20058;-61
2022/07/20 20:55:37;;;;;;;15.70;9.20;;;;;;;;;;10184097;28;20052;-61
2022/07/20 21:00:31;;;;;;;17.40;9.40;;;;;;;;;;10183395;28;20094;-64
2022/07/20 21:05:25;;;;;;;18.83;9.48;;;;;;;;;;10185890;28;20491;-62
2022/07/20 21:10:19;;;;;;;12.38;8.57;;;;;;;;;;10184300;28;20056;-66
2022/07/20 21:15:12;;;;;;;12.57;10.30;;;;;;;;;;10183643;28;20043;-64
2022/07/20 21:20:06;;;;;;;10.32;8.82;;;;;;;;;;10183422;28;20128;-66
2022/07/20 21:24:59;;;;;;;16.67;9.73;;;;;;;;;;10185440;28;20036;-66
2022/07/20 21:29:54;;;;;;;15.60;9.88;;;;;;;;;;10183754;28;20400;-65
2022/07/20 21:34:48;;;;;;;14.90;11.00;;;;;;;;;;10184104;28;20051;-64
2022/07/20 21:39:41;;;;;;;14.52;10.75;;;;;;;;;;10180816;28;20135;-64
2022/07/20 21:44:36;;;;;;;12.55;10.52;;;;;;;;;;10180728;28;20052;-64
2022/07/20 21:49:30;;;;;;;19.45;9.57;;;;;;;;;;10181938;28;20538;-65
2022/07/20 21:54:24;;;;;;;16.48;9.40;;;;;;;;;;10182117;28;20365;-65
2022/07/20 21:59:19;;;;;;;17.73;9.85;;;;;;;;;;10179780;28;20450;-64
2022/07/20 22:04:13;;;;;;;11.25;7.72;;;;;;;;;;10185300;28;20427;-64
2022/07/20 22:09:07;;;;;;;16.05;8.27;;;;;;;;;;10182461;28;20044;-64
2022/07/20 22:14:00;;;;;;;21.08;9.00;;;;;;;;;;10181857;28;20430;-64
2022/07/20 22:18:55;;;;;;;15.88;6.80;;;;;;;;;;10170511;28;20051;-63
2022/07/20 22:23:50;;;;;;;10.32;6.55;;;;;;;;;;10163740;28;20109;-63
2022/07/20 22:28:44;;;;;;;11.75;6.93;;;;;;;;;;10171565;28;20044;-63
2022/07/20 22:33:38;;;;;;;12.05;7.38;;;;;;;;;;10174126;28;20036;-68
2022/07/20 22:38:33;;;;;;;9.88;7.10;;;;;;;;;;10176681;28;20074;-64
2022/07/20 22:43:31;;;;;;;10.60;7.57;;;;;;;;;;10180380;28;20389;-63
2022/07/20 22:48:25;;;;;;;9.07;6.70;;;;;;;;;;10178958;28;20051;-61
2022/07/20 22:53:20;;;;;;;13.50;7.78;;;;;;;;;;10174177;28;20051;-62
2022/07/20 22:58:14;;;;;;;15.32;8.57;;;;;;;;;;10177459;28;20059;-63
2022/07/20 23:03:10;;;;;;;9.55;7.32;;;;;;;;;;10179009;28;20043;-63
2022/07/20 23:08:05;;;;;;;10.93;7.68;;;;;;;;;;10180784;28;20396;-62
2022/07/20 23:12:59;;;;;;;14.65;7.35;;;;;;;;;;10177080;28;20040;-65
2022/07/20 23:17:55;;;;;;;17.20;6.13;;;;;;;;;;10164617;28;20412;-65
2022/07/20 23:22:49;;;;;;;7.97;6.50;;;;;;;;;;10163203;28;20404;-65
2022/07/20 23:27:43;;;;;;;8.95;5.72;;;;;;;;;;10181445;28;20071;-63
2022/07/20 23:32:37;;;;;;;6.47;5.57;;;;;;;;;;10160916;28;20488;-64
2022/07/20 23:37:31;;;;;;;11.25;6.60;;;;;;;;;;10173704;28;20055;-63
2022/07/20 23:42:25;;;;;;;15.50;8.00;;;;;;;;;;10153903;28;20064;-64
2022/07/20 23:47:20;;;;;;;16.67;7.30;;;;;;;;;;10174391;28;20044;-62
2022/07/20 23:52:15;;;;;;;7.15;6.45;;;;;;;;;;10182389;28;20048;-63
2022/07/20 23:57:10;;;;;;;12.35;6.40;;;;;;;;;;10172632;28;20456;-63
